Time;durP1;ratioP1;P1;durP2;ratioP2;P2;SDS_P1;SDS_P2;PMS_P1;PMS_P2;Temp;Humidity;BMP_temperature;BMP_pressure;BME280_temperature;BME280_humidity;BME280_pressure;Samples;Min_cycle;Max_cycle;Signal;HPM_P1;HPM_P2
2022/04/23 00:00:33;;;;;;;13.00;6.47;;;13.30;92.60;;;13.36;59.28;99805.31;5183836;28;20486;-70
2022/04/23 00:03:05;;;;;;;11.98;6.60;;;13.20;92.80;;;13.31;58.98;99804.44;5183539;28;20053;-69
2022/04/23 00:05:38;;;;;;;11.80;6.30;;;13.20;93.00;;;13.27;59.79;99798.28;5167733;28;20042;-70
2022/04/23 00:08:11;;;;;;;12.88;5.97;;;13.20;93.30;;;13.20;60.06;99795.56;5163405;28;20054;-69
2022/04/23 00:10:43;;;;;;;12.05;6.45;;;13.10;93.80;;;13.13;60.25;99796.38;5163514;28;20069;-69
2022/04/23 00:13:15;;;;;;;13.48;7.25;;;13.00;94.00;;;13.06;60.47;99792.84;5162977;28;20056;-69
2022/04/23 00:15:47;;;;;;;11.77;6.03;;;12.90;94.30;;;12.99;61.05;99793.66;5163674;28;20050;-70
2022/04/23 00:18:19;;;;;;;14.38;6.25;;;12.90;94.80;;;12.94;61.30;99798.81;5164824;28;20046;-69
2022/04/23 00:20:52;;;;;;;15.10;7.85;;;12.80;95.00;;;12.90;61.56;99793.53;5163763;28;20057;-69
2022/04/23 00:23:25;;;;;;;12.90;7.30;;;12.80;95.30;;;12.83;62.02;99794.34;5162616;28;20192;-71
2022/04/23 00:25:58;;;;;;;13.93;6.82;;;12.70;95.50;;;12.81;61.75;99790.84;5163770;28;20057;-69
2022/04/23 00:28:30;;;;;;;11.88;6.75;;;12.70;95.60;;;12.81;61.94;99785.63;5162947;28;20050;-70
2022/04/23 00:31:02;;;;;;;11.18;6.47;;;12.70;95.70;;;12.78;61.95;99791.72;5178191;28;20046;-70
2022/04/23 00:33:37;;;;;;;12.52;7.20;;;12.70;95.80;;;12.76;61.94;99791.66;5183315;28;20109;-70
2022/04/23 00:36:11;;;;;;;14.18;7.75;;;12.70;96.00;;;12.77;62.26;99789.94;5184481;28;20050;-70
2022/04/23 00:38:45;;;;;;;12.02;7.43;;;12.70;96.20;;;12.74;62.38;99787.31;5185773;28;20061;-69
2022/04/23 00:44:04;;;;;;;15.00;7.88;;;12.60;96.50;;;12.73;62.47;99789.03;5186061;28;20486;-70
2022/04/23 00:46:36;;;;;;;11.75;6.90;;;12.60;96.60;;;12.73;62.69;99788.16;5187370;28;20050;-70
2022/04/23 00:49:08;;;;;;;12.05;7.18;;;12.60;96.90;;;12.69;62.84;99792.47;5187328;28;20050;-69
2022/04/23 00:51:43;;;;;;;14.85;8.48;;;12.50;97.10;;;12.64;63.12;99794.16;5186841;28;20297;-70
2022/04/23 00:54:15;;;;;;;13.65;7.63;;;12.50;97.30;;;12.63;63.23;99796.75;5187160;28;20050;-69
2022/04/23 00:56:47;;;;;;;15.45;7.57;;;12.60;97.60;;;12.62;63.08;99793.28;5187909;28;20056;-70
2022/04/23 00:59:19;;;;;;;14.27;7.55;;;12.50;97.40;;;12.61;63.47;99796.75;5186929;28;20061;-71
2022/04/23 01:01:53;;;;;;;14.98;7.70;;;12.50;97.40;;;12.60;63.55;99796.75;5185932;28;20133;-71
2022/04/23 01:04:25;;;;;;;13.73;7.57;;;12.50;97.60;;;12.57;63.83;99797.56;5186618;28;20060;-69
2022/04/23 01:06:59;;;;;;;15.57;8.25;;;12.50;97.70;;;12.55;63.56;99795.81;5186883;28;20050;-69
2022/04/23 01:09:31;;;;;;;15.00;8.32;;;12.50;97.80;;;12.51;63.70;99797.50;5187185;28;20406;-69
2022/04/23 01:12:05;;;;;;;13.82;7.60;;;12.40;97.80;;;12.48;63.96;99790.50;5186494;28;20050;-70
2022/04/23 01:14:59;;;;;;;15.55;7.88;;;12.40;98.00;;;12.42;64.33;99790.44;5187302;28;20073;-71
2022/04/23 01:17:32;;;;;;;15.25;8.50;;;12.40;98.20;;;12.38;64.56;99790.38;5186811;28;20123;-70
2022/04/23 01:20:08;;;;;;;16.52;8.27;;;12.30;98.40;;;12.36;64.83;99793.00;5186688;28;20054;-70
2022/04/23 01:22:42;;;;;;;15.73;8.07;;;12.30;98.60;;;12.30;65.14;99778.97;5186323;28;20050;-70
2022/04/23 01:25:15;;;;;;;15.20;7.80;;;12.20;99.10;;;12.29;65.45;99790.28;5186318;28;20561;-69
2022/04/23 01:27:48;;;;;;;16.13;7.85;;;12.20;99.00;;;12.26;65.08;99783.31;5186536;28;20052;-69
2022/04/23 01:30:20;;;;;;;16.17;8.43;;;12.20;99.10;;;12.22;65.59;99784.13;5185118;28;20057;-69
2022/04/23 01:32:53;;;;;;;14.93;8.23;;;12.10;99.30;;;12.19;65.78;99784.97;5187322;28;20145;-69
2022/04/23 01:35:26;;;;;;;17.67;8.10;;;12.10;99.50;;;12.16;66.10;99787.53;5186364;28;20046;-70
2022/04/23 01:37:58;;;;;;;16.33;8.23;;;12.10;99.70;;;12.16;66.08;99784.91;5186483;28;20054;-71
2022/04/23 01:40:30;;;;;;;15.50;8.18;;;12.10;99.80;;;12.12;66.51;99772.66;5186127;28;20050;-69
2022/04/23 01:43:02;;;;;;;15.05;7.88;;;12.10;99.90;;;12.09;66.66;99780.47;5185811;28;20061;-70
2022/04/23 01:45:34;;;;;;;15.13;8.02;;;12.00;99.90;;;12.08;66.71;99781.34;5186251;28;20057;-69
2022/04/23 01:48:07;;;;;;;15.07;8.43;;;12.00;99.90;;;12.02;66.87;99778.63;5186435;28;20049;-70
2022/04/23 01:50:40;;;;;;;17.73;8.18;;;11.90;99.90;;;11.97;67.10;99782.91;5185195;28;20053;-70
2022/04/23 01:53:12;;;;;;;17.15;9.55;;;11.90;99.90;;;11.93;67.60;99786.34;5186315;28;20425;-70
2022/04/23 01:55:44;;;;;;;17.00;8.40;;;11.90;99.90;;;11.86;67.94;99779.28;5186007;28;20056;-69
2022/04/23 01:58:16;;;;;;;15.32;8.15;;;11.80;99.90;;;11.81;68.12;99780.97;5185965;28;20053;-69
2022/04/23 02:00:49;;;;;;;16.35;9.38;;;11.70;99.90;;;11.80;68.29;99779.16;5185301;28;20050;-70
2022/04/23 02:03:22;;;;;;;16.67;8.63;;;11.70;99.90;;;11.75;68.52;99781.72;5185341;28;20050;-69
2022/04/23 02:05:56;;;;;;;15.38;8.70;;;11.60;99.90;;;11.71;68.70;99784.28;5185576;28;20100;-70
2022/04/23 02:08:27;;;;;;;15.93;8.52;;;11.60;99.90;;;11.69;68.99;99782.53;5186049;28;20041;-69
2022/04/23 02:10:59;;;;;;;15.68;8.73;;;11.60;99.90;;;11.66;68.96;99777.25;5186733;28;20046;-69
2022/04/23 02:13:31;;;;;;;16.48;8.75;;;11.60;99.90;;;11.63;69.41;99781.56;5185242;28;20050;-69
2022/04/23 02:16:04;;;;;;;17.95;9.60;;;11.60;99.90;;;11.62;69.77;99779.81;5185436;28;20052;-70
2022/04/23 02:18:37;;;;;;;17.52;8.88;;;11.60;99.90;;;11.64;69.65;99776.34;5185561;28;20061;-69
2022/04/23 02:21:11;;;;;;;20.77;9.35;;;11.60;99.90;;;11.62;69.73;99775.47;5185188;28;20057;-69
2022/04/23 02:23:43;;;;;;;20.13;10.70;;;11.50;99.90;;;11.62;69.87;99785.91;5185150;28;20391;-69
2022/04/23 02:26:15;;;;;;;16.38;8.65;;;11.60;99.90;;;11.60;69.92;99782.38;5185428;28;20046;-69
2022/04/23 02:28:48;;;;;;;18.80;9.60;;;11.50;99.90;;;11.58;69.96;99789.31;5185230;28;20415;-69
2022/04/23 02:31:20;;;;;;;17.55;9.05;;;11.60;99.90;;;11.57;70.02;99777.13;5185781;28;20076;-70
2022/04/23 02:33:52;;;;;;;19.52;8.88;;;11.60;99.90;;;11.57;70.27;99774.50;5184907;28;20056;-70
2022/04/23 02:36:25;;;;;;;16.30;9.23;;;11.50;99.90;;;11.54;70.33;99771.88;5185010;28;20049;-70
2022/04/23 02:38:58;;;;;;;18.27;9.05;;;11.40;99.90;;;11.52;70.43;99777.91;5185056;28;20166;-70
2022/04/23 02:41:30;;;;;;;17.10;9.07;;;11.40;99.90;;;11.46;70.70;99778.69;5184707;28;20060;-70
2022/04/23 02:44:03;;;;;;;18.60;9.07;;;11.40;99.90;;;11.41;71.18;99788.19;5185112;28;20054;-70
2022/04/23 02:46:35;;;;;;;19.27;10.98;;;11.40;99.90;;;11.39;71.21;99785.53;5185029;28;20482;-70
2022/04/23 02:49:07;;;;;;;19.08;9.45;;;11.40;99.90;;;11.40;71.17;99783.81;5186257;28;20058;-69
2022/04/23 02:51:42;;;;;;;18.05;8.52;;;11.30;99.90;;;11.41;71.15;99785.59;5184381;28;20056;-70
2022/04/23 02:54:14;;;;;;;20.73;10.00;;;11.30;99.90;;;11.41;71.20;99777.75;5184848;28;20422;-70
2022/04/23 02:56:46;;;;;;;17.02;9.00;;;11.30;99.90;;;11.42;71.38;99776.91;5184842;28;20054;-69
2022/04/23 02:59:18;;;;;;;17.02;9.18;;;11.30;99.90;;;11.39;71.28;99777.72;5184821;28;20457;-69
2022/04/23 03:01:50;;;;;;;17.02;8.10;;;11.30;99.90;;;11.33;71.31;99777.63;5184259;28;20049;-69
2022/04/23 03:04:22;;;;;;;17.90;8.75;;;11.30;99.90;;;11.29;71.57;99780.19;5184568;28;20056;-70
2022/04/23 03:06:55;;;;;;;17.65;8.98;;;11.20;99.90;;;11.23;71.84;99774.84;5184847;28;20045;-70
2022/04/23 03:09:27;;;;;;;17.77;9.02;;;11.20;99.90;;;11.16;72.13;99773.00;5184966;28;20112;-70
2022/04/23 03:11:59;;;;;;;17.92;8.88;;;11.10;99.90;;;11.08;72.71;99765.03;5184062;28;20045;-70
2022/04/23 03:14:32;;;;;;;18.58;9.25;;;11.00;99.90;;;11.05;72.98;99771.09;5184383;28;20137;-69
2022/04/23 03:17:05;;;;;;;17.23;8.63;;;10.90;99.90;;;11.00;73.11;99772.75;5184829;28;20052;-69
2022/04/23 03:19:37;;;;;;;17.17;8.68;;;10.90;99.90;;;10.98;73.20;99769.25;5184493;28;20049;-70
2022/04/23 03:22:10;;;;;;;18.02;8.93;;;10.90;99.90;;;10.92;73.38;99769.13;5183880;28;20079;-69
2022/04/23 03:24:42;;;;;;;20.60;9.55;;;10.80;99.90;;;10.85;73.69;99762.94;5184327;28;20054;-69
2022/04/23 03:27:14;;;;;;;16.73;8.80;;;10.80;99.90;;;10.82;73.94;99767.19;5185093;28;20046;-70
2022/04/23 03:29:46;;;;;;;19.50;9.40;;;10.70;99.90;;;10.77;74.22;99769.75;5184303;28;20046;-69
2022/04/23 03:32:18;;;;;;;18.33;8.48;;;10.70;99.90;;;10.73;74.40;99759.22;5183870;28;20053;-69
2022/04/23 03:34:50;;;;;;;19.95;9.00;;;10.60;99.90;;;10.71;74.67;99760.94;5184463;28;20050;-69
2022/04/23 03:37:24;;;;;;;19.85;8.90;;;10.60;99.90;;;10.70;74.75;99757.47;5184534;28;20056;-70
2022/04/23 03:39:56;;;;;;;17.50;8.60;;;10.60;99.90;;;10.69;74.82;99757.41;5184318;28;20487;-70
2022/04/23 03:42:28;;;;;;;18.00;8.65;;;10.60;99.90;;;10.68;74.84;99753.06;5183846;28;20054;-70
2022/04/23 03:45:00;;;;;;;20.98;9.93;;;10.60;99.90;;;10.65;74.88;99761.72;5184069;28;20056;-70
2022/04/23 03:47:33;;;;;;;22.50;9.20;;;10.50;99.90;;;10.65;74.85;99764.31;5185135;28;20502;-70
2022/04/23 03:50:07;;;;;;;19.92;9.32;;;10.50;99.90;;;10.63;75.02;99763.41;5184359;28;20155;-69
2022/04/23 03:55:18;;;;;;;19.23;9.70;;;10.50;99.90;;;10.60;75.01;99766.84;5140391;28;20051;-74
2022/04/23 03:57:54;;;;;;;19.85;9.20;;;10.50;99.90;;;10.58;75.07;99757.25;5143585;28;20065;-73
2022/04/23 04:00:26;;;;;;;16.98;8.43;;;10.50;99.90;;;10.51;75.08;99760.59;5143338;28;20069;-74
2022/04/23 04:02:59;;;;;;;19.17;9.15;;;10.40;99.90;;;10.47;75.34;99769.19;5143463;28;20054;-74
2022/04/23 04:05:31;;;;;;;17.38;8.60;;;10.40;99.90;;;10.41;75.60;99764.72;5141779;28;20058;-72
2022/04/23 04:08:03;;;;;;;18.70;9.10;;;10.30;99.90;;;10.37;75.67;99762.94;5143229;28;20082;-73
2022/04/23 04:10:37;;;;;;;20.27;9.20;;;10.30;99.90;;;10.32;75.83;99759.34;5143493;28;20047;-74
2022/04/23 04:13:09;;;;;;;20.73;9.70;;;10.20;99.90;;;10.28;75.85;99762.75;5144421;28;20055;-76
2022/04/23 04:15:43;;;;;;;19.23;9.52;;;10.20;99.90;;;10.23;75.92;99764.38;5147233;28;20047;-74
2022/04/23 04:18:15;;;;;;;22.55;9.80;;;10.10;99.90;;;10.15;76.31;99747.69;5147462;28;20133;-75
2022/04/23 04:20:49;;;;;;;19.45;9.05;;;10.10;99.90;;;10.10;76.43;99762.34;5147139;28;20065;-74
2022/04/23 04:23:23;;;;;;;19.92;9.57;;;10.00;99.90;;;10.03;76.81;99757.00;5147092;28;20654;-75
2022/04/23 04:25:57;;;;;;;18.98;9.57;;;10.00;99.90;;;9.99;76.95;99750.00;5147410;28;20046;-77
2022/04/23 04:28:31;;;;;;;18.90;9.43;;;9.90;99.90;;;9.94;77.06;99745.53;5146583;28;20046;-74
2022/04/23 04:33:52;;;;;;;19.83;8.80;;;9.80;99.90;;;9.88;77.71;99745.41;5146892;28;20101;-74
2022/04/23 04:36:24;;;;;;;17.65;9.23;;;9.80;99.90;;;9.84;77.59;99749.66;5147519;28;20231;-75
2022/04/23 04:38:56;;;;;;;23.55;10.90;;;9.80;99.90;;;9.82;77.80;99745.28;5147363;28;20383;-74
2022/04/23 04:41:31;;;;;;;19.60;9.30;;;9.70;99.90;;;9.80;77.83;99742.66;5146846;28;20494;-77
2022/04/23 04:44:03;;;;;;;21.50;9.93;;;9.70;99.90;;;9.79;78.18;99740.91;5146851;28;20102;-73
2022/04/23 04:46:36;;;;;;;20.65;8.98;;;9.70;99.90;;;9.81;78.46;99743.53;5146978;28;20138;-74
2022/04/23 04:49:09;;;;;;;20.45;9.68;;;9.70;99.90;;;9.81;78.58;99741.81;5146528;28;20082;-74
2022/04/23 04:51:41;;;;;;;20.20;9.55;;;9.70;99.90;;;9.84;78.45;99741.84;5146586;28;20382;-76
2022/04/23 04:54:13;;;;;;;19.70;10.38;;;9.70;99.90;;;9.86;78.70;99745.38;5146835;28;20443;-77
2022/04/23 04:56:46;;;;;;;19.30;9.10;;;9.80;99.90;;;9.90;78.70;99743.69;5145209;28;20056;-74
2022/04/23 04:59:20;;;;;;;22.65;9.82;;;9.80;99.90;;;9.93;78.81;99747.25;5146677;28;20069;-73
2022/04/23 05:01:53;;;;;;;20.98;9.48;;;9.90;99.90;;;9.99;78.79;99749.13;5145843;28;20065;-74
2022/04/23 05:04:26;;;;;;;19.02;10.07;;;9.90;99.90;;;10.03;78.90;99749.19;5146687;28;20419;-74
2022/04/23 05:06:58;;;;;;;18.80;9.27;;;9.90;99.90;;;10.11;78.96;99754.56;5146636;28;20043;-74
2022/04/23 05:09:31;;;;;;;18.85;9.23;;;10.00;99.90;;;10.15;78.66;99756.38;5148219;28;20049;-76
2022/04/23 05:12:05;;;;;;;18.15;9.38;;;10.00;99.90;;;10.20;78.93;99759.09;5159502;28;20081;-74
2022/04/23 05:14:37;;;;;;;19.10;9.52;;;10.10;99.90;;;10.26;78.97;99759.22;5167462;28;20058;-76
2022/04/23 05:17:10;;;;;;;19.13;9.25;;;10.10;99.90;;;10.29;79.01;99757.56;5162788;28;20046;-75
2022/04/23 05:19:42;;;;;;;19.88;9.73;;;10.20;99.90;;;10.36;79.01;99761.16;5159699;28;20050;-76
2022/04/23 05:22:14;;;;;;;21.98;11.35;;;10.20;99.90;;;10.43;79.18;99762.16;5167462;28;20392;-75
2022/04/23 05:24:46;;;;;;;18.80;9.18;;;10.30;99.90;;;10.49;79.01;99757.94;5166028;28;20053;-75
2022/04/23 05:27:20;;;;;;;18.85;8.98;;;10.30;99.90;;;10.79;79.56;99759.34;5165872;28;20097;-75
2022/04/23 05:29:52;;;;;;;20.52;9.90;;;10.50;99.90;;;11.33;79.67;99761.97;5166199;28;20092;-75
2022/04/23 05:32:24;;;;;;;18.42;10.55;;;10.90;99.90;;;12.02;78.11;99752.53;5166204;28;20384;-76
2022/04/23 05:34:56;;;;;;;18.33;9.20;;;11.40;99.90;;;12.69;74.84;99750.63;5166209;28;20046;-76
2022/04/23 05:37:28;;;;;;;17.40;9.35;;;11.90;99.90;;;13.36;71.63;99754.72;5138959;28;20047;-73
2022/04/23 05:40:00;;;;;;;18.60;9.02;;;12.50;99.90;;;13.93;68.42;99755.94;5145495;28;20054;-76
2022/04/23 05:42:33;;;;;;;17.65;8.95;;;13.00;99.90;;;14.43;65.51;99760.50;5145625;28;20142;-75
2022/04/23 05:45:06;;;;;;;16.02;8.63;;;13.50;99.90;;;14.88;62.85;99755.38;5146014;28;20082;-75
2022/04/23 05:47:41;;;;;;;19.80;11.07;;;14.10;99.90;;;15.32;60.44;99765.00;5145686;28;20057;-74
2022/04/23 05:50:13;;;;;;;19.23;10.07;;;14.50;99.80;;;15.65;59.13;99771.13;5145499;28;20051;-74
2022/04/23 05:52:45;;;;;;;18.52;10.13;;;14.80;98.50;;;15.93;57.77;99767.53;5145516;28;20076;-74
2022/04/23 05:55:17;;;;;;;17.30;9.90;;;15.20;97.20;;;16.24;56.22;99767.41;5145643;28;20418;-75
2022/04/23 05:57:50;;;;;;;15.35;8.57;;;15.50;95.80;;;16.46;55.43;99770.81;5145731;28;20518;-74
2022/04/23 06:00:22;;;;;;;16.88;8.48;;;15.70;94.90;;;16.71;53.96;99775.06;5145139;28;20054;-72
2022/04/23 06:02:54;;;;;;;16.75;9.00;;;16.10;93.40;;;16.99;52.69;99774.88;5144789;28;20496;-71
2022/04/23 06:05:26;;;;;;;17.60;9.02;;;16.40;92.10;;;17.25;51.88;99775.53;5145070;28;20053;-72
2022/04/23 06:07:58;;;;;;;16.80;10.13;;;16.60;91.10;;;17.49;51.27;99770.94;5141649;28;20069;-71
2022/04/23 06:10:30;;;;;;;15.82;9.57;;;16.80;90.20;;;17.74;51.11;99779.53;5156160;28;20529;-72
2022/04/23 06:13:06;;;;;;;15.27;8.52;;;17.00;90.10;;;17.93;50.25;99778.44;5164705;28;20117;-73
2022/04/23 06:15:38;;;;;;;17.23;9.20;;;17.20;88.50;;;18.12;48.90;99779.06;5165307;28;20097;-72
2022/04/23 06:18:10;;;;;;;16.98;9.38;;;17.40;85.50;;;18.37;48.76;99777.00;5165318;28;20050;-72
2022/04/23 06:20:42;;;;;;;15.65;8.35;;;17.60;85.00;;;18.55;47.64;99774.13;5164997;28;20109;-72
2022/04/23 06:23:14;;;;;;;21.52;12.00;;;17.80;82.50;;;18.79;47.17;99778.22;5165143;28;20057;-75
2022/04/23 06:25:46;;;;;;;16.52;8.95;;;18.00;81.20;;;19.00;46.17;99777.03;5164713;28;20046;-73
2022/04/23 06:28:19;;;;;;;31.25;18.27;;;18.10;80.10;;;19.12;45.93;99781.25;5164904;28;20407;-74
2022/04/23 06:30:51;;;;;;;15.40;8.95;;;18.30;78.50;;;19.35;45.70;99783.50;5154019;28;20065;-75
2022/04/23 06:33:23;;;;;;;21.98;12.30;;;18.50;78.00;;;19.54;45.23;99774.34;5143042;28;20047;-75
2022/04/23 06:35:55;;;;;;;16.58;8.80;;;18.60;76.80;;;19.71;45.11;99774.94;5144025;28;20057;-75
2022/04/23 06:38:27;;;;;;;17.88;9.57;;;18.80;76.30;;;19.90;44.08;99775.47;5144246;28;20050;-75
2022/04/23 06:41:00;;;;;;;17.75;9.35;;;19.00;74.60;;;20.05;43.71;99777.81;5144110;28;20397;-74
2022/04/23 06:43:34;;;;;;;16.77;9.88;;;19.20;73.70;;;20.06;43.42;99773.38;5143990;28;20396;-74
2022/04/23 06:46:05;;;;;;;11.77;6.82;;;19.30;73.00;;;20.12;43.62;99773.28;5143878;28;20046;-66
2022/04/23 06:48:37;;;;;;;11.82;6.75;;;19.40;72.70;;;20.32;43.11;99776.38;5143923;28;20051;-71
2022/04/23 06:51:09;;;;;;;14.73;8.98;;;19.50;71.70;;;20.50;42.59;99772.50;5143458;28;20476;-72
2022/04/23 06:53:42;;;;;;;12.30;6.97;;;19.70;70.80;;;20.30;41.63;99767.59;5143063;28;20053;-70
2022/04/23 06:56:13;;;;;;;11.20;6.45;;;19.70;68.50;;;20.08;42.12;99770.72;5143243;28;20046;-71
2022/04/23 06:58:48;;;;;;;10.15;5.70;;;19.60;68.20;;;20.04;41.78;99764.63;5143579;28;20099;-72
2022/04/23 07:01:20;;;;;;;17.33;9.27;;;19.60;67.60;;;19.98;42.45;99764.75;5144211;28;20050;-70
2022/04/23 07:03:52;;;;;;;9.85;5.90;;;19.60;68.10;;;20.00;42.29;99757.66;5143126;28;20050;-71
2022/04/23 07:06:24;;;;;;;10.55;5.80;;;19.60;67.70;;;19.77;42.03;99766.91;5143289;28;20492;-70
2022/04/23 07:08:56;;;;;;;11.13;6.30;;;19.50;66.90;;;19.64;42.57;99764.53;5140340;28;20058;-69
2022/04/23 07:11:29;;;;;;;10.88;6.28;;;19.40;67.40;;;19.40;42.88;99773.72;5142722;28;20043;-73
2022/04/23 07:14:02;;;;;;;12.52;6.63;;;19.30;67.20;;;19.06;43.53;99770.78;5144377;28;20106;-70
2022/04/23 07:16:35;;;;;;;9.85;5.95;;;19.00;67.50;;;19.04;43.71;99770.81;5142412;28;20669;-69
2022/04/23 07:19:09;;;;;;;11.68;6.03;;;18.90;68.10;;;19.39;44.19;99786.06;5144061;28;20053;-70
2022/04/23 07:21:41;;;;;;;11.40;6.57;;;19.00;69.30;;;19.60;42.96;99768.97;5143709;28;20480;-72
2022/04/23 07:24:13;;;;;;;10.82;6.15;;;19.20;68.00;;;19.64;42.61;99770.69;5143942;28;20080;-69
2022/04/23 07:26:45;;;;;;;10.40;5.38;;;19.20;67.40;;;19.83;42.73;99765.06;5143992;28;20050;-70
2022/04/23 07:29:19;;;;;;;8.95;5.05;;;19.30;67.80;;;20.15;42.55;99762.63;5134697;28;20059;-72
2022/04/23 07:31:51;;;;;;;9.52;5.30;;;19.60;67.80;;;20.73;41.55;99765.81;5143410;28;20054;-69
2022/04/23 07:37:31;;;;;;;10.50;6.00;;;20.00;65.20;;;20.40;41.60;99765.63;5137211;28;20117;-75
2022/04/23 07:40:10;;;;;;;10.65;6.20;;;20.00;65.70;;;20.47;40.95;99761.97;5143083;28;20057;-74
2022/04/23 07:42:42;;;;;;;9.38;5.13;;;20.10;64.80;;;20.62;40.77;99763.41;5141292;28;20086;-76
2022/04/23 07:45:15;;;;;;;10.02;6.45;;;20.20;64.70;;;20.48;40.50;99771.66;5144122;28;20500;-74
2022/04/23 07:47:47;;;;;;;10.05;5.53;;;20.20;64.00;;;20.33;41.10;99756.94;5144842;28;20058;-74
2022/04/23 07:50:20;;;;;;;9.80;5.60;;;20.10;64.40;;;20.37;40.63;99763.06;5148112;28;20067;-73
2022/04/23 07:52:52;;;;;;;10.82;5.97;;;20.10;64.30;;;20.39;40.76;99771.81;5147753;28;20050;-73
2022/04/23 07:55:24;;;;;;;10.95;5.60;;;20.00;64.20;;;20.54;40.75;99766.25;5147978;28;20054;-73
2022/04/23 07:57:58;;;;;;;10.60;5.80;;;20.10;64.40;;;21.02;40.34;99759.84;5147779;28;20448;-73
2022/04/23 08:00:34;;;;;;;9.68;5.70;;;20.20;64.60;;;21.45;39.32;99767.59;5147905;28;20317;-73
2022/04/23 08:03:08;;;;;;;8.77;5.25;;;20.50;64.10;;;21.80;38.52;99766.69;5147301;28;20051;-74
2022/04/23 08:05:40;;;;;;;8.43;4.90;;;20.70;63.00;;;22.21;37.52;99769.97;5147420;28;20052;-74
2022/04/23 08:08:12;;;;;;;12.88;6.07;;;21.00;62.20;;;22.57;37.20;99777.78;5147616;28;20050;-74
2022/04/23 08:10:45;;;;;;;14.30;5.70;;;21.30;61.90;;;22.65;36.45;99783.72;5147752;28;20062;-73
2022/04/23 08:13:17;;;;;;;8.35;5.07;;;21.40;60.50;;;22.98;36.13;99774.72;5147173;28;20455;-74
2022/04/23 08:15:51;;;;;;;10.27;5.78;;;21.50;60.50;;;23.42;34.71;99774.19;5147449;28;20106;-74
2022/04/23 08:18:22;;;;;;;10.82;5.30;;;21.70;58.70;;;23.88;34.08;99773.47;5147607;28;20538;-74
2022/04/23 08:20:55;;;;;;;8.52;5.40;;;21.90;58.90;;;23.24;34.32;99775.66;5147594;28;20498;-73
2022/04/23 08:23:27;;;;;;;9.13;5.22;;;21.80;58.00;;;22.64;35.65;99779.34;5146983;28;20101;-72
2022/04/23 08:26:00;;;;;;;9.82;5.35;;;21.50;58.70;;;22.77;35.68;99772.72;5147085;28;20138;-73
2022/04/23 08:31:23;;;;;;;10.32;5.28;;;21.50;59.40;;;23.98;33.53;99777.53;5147131;28;20529;-72
2022/04/23 08:34:01;;;;;;;9.75;5.28;;;21.70;58.10;;;24.34;33.06;99771.81;5146941;28;20488;-74
2022/04/23 08:36:36;;;;;;;7.18;4.60;;;21.90;57.80;;;25.15;32.14;99773.94;5146956;28;20046;-73
2022/04/23 08:39:08;;;;;;;9.93;5.47;;;22.30;57.40;;;25.68;31.14;99766.34;5146847;28;20101;-73
2022/04/23 08:41:41;;;;;;;7.13;4.40;;;22.80;56.20;;;26.64;29.65;99770.97;5146483;28;20480;-73
2022/04/23 08:44:13;;;;;;;9.05;5.10;;;23.40;55.30;;;27.55;28.54;99770.94;5147204;28;20436;-73
2022/04/23 08:46:47;;;;;;;7.75;5.13;;;24.10;54.40;;;27.03;28.33;99776.19;5146831;28;20138;-74
2022/04/23 08:49:19;;;;;;;;;;;24.20;52.60;;;25.94;29.59;99781.25;5147105;28;20055;-75
2022/04/23 08:51:54;;;;;;;8.20;5.03;;;23.90;52.40;;;25.85;30.17;99775.47;5146336;28;20009;-74
2022/04/23 08:54:27;;;;;;;9.25;6.20;;;23.70;53.30;;;26.54;29.13;99775.91;5146569;28;20055;-74
2022/04/23 08:56:59;;;;;;;9.50;5.75;;;24.00;52.80;;;26.01;29.80;99764.94;5146678;28;20057;-72
2022/04/23 08:59:31;;;;;;;10.32;5.90;;;23.80;52.80;;;25.92;29.83;99763.56;5146333;28;20056;-73
2022/04/23 09:02:12;;;;;;;8.48;5.30;;;23.70;52.50;;;26.02;29.59;99764.91;5145806;28;20046;-73
2022/04/23 09:04:44;;;;;;;;;;;23.80;52.80;;;25.70;30.08;99764.50;5147408;28;20235;-73
2022/04/23 09:07:20;;;;;;;9.05;5.85;;;23.70;52.90;;;25.42;31.08;99763.94;5146761;28;19977;-74
2022/04/23 09:09:54;;;;;;;8.57;4.95;;;23.60;53.20;;;24.60;32.04;99763.69;5146258;28;20082;-74
2022/04/23 09:12:28;;;;;;;9.38;5.70;;;23.30;54.00;;;24.51;31.75;99773.81;5145731;28;20539;-75
2022/04/23 09:23:39;;;;;;;8.50;4.82;;;23.10;53.60;;;24.32;32.51;99757.63;5146532;28;20051;-72
2022/04/23 09:23:43;;;;;;;8.75;4.78;;;22.50;54.60;;;22.56;35.00;99760.09;5146097;28;20113;-72
2022/04/23 09:26:19;;;;;;;11.45;4.70;;;22.20;55.00;;;22.42;35.29;99752.53;5145827;28;20050;-72
2022/04/23 09:28:51;;;;;;;8.52;5.18;;;22.00;55.60;;;22.58;35.39;99742.34;5146033;28;20407;-72
2022/04/23 09:31:25;;;;;;;7.75;4.43;;;22.00;56.00;;;22.66;35.52;99753.59;5145851;28;20051;-72
2022/04/23 09:33:58;;;;;;;;;;;22.10;56.20;;;22.46;35.90;99739.13;5145027;28;20051;-56
2022/04/23 09:36:48;;;;;;;7.13;4.68;;;22.00;56.30;;;22.43;36.11;99741.91;5143600;28;19922;-56
2022/04/23 09:39:30;;;;;;;7.55;4.32;;;22.00;56.30;;;22.57;36.16;99745.91;5145886;28;20054;-56
2022/04/23 09:42:13;;;;;;;7.68;4.35;;;22.10;56.50;;;22.52;35.77;99754.00;5134467;28;20074;-57
2022/04/23 09:44:47;;;;;;;9.05;4.97;;;22.10;56.20;;;22.11;36.72;99737.53;5145787;28;20174;-56
2022/04/23 09:47:30;;;;;;;9.38;5.13;;;21.90;56.60;;;22.20;36.55;99733.72;5145747;28;20531;-56
2022/04/23 09:50:05;;;;;;;10.73;5.35;;;21.90;56.70;;;21.85;37.40;99735.59;5145713;28;20468;-57
2022/04/23 09:52:37;;;;;;;8.00;4.85;;;21.70;57.30;;;21.86;37.58;99732.03;5145424;28;20055;-56
2022/04/23 09:55:11;;;;;;;7.13;4.28;;;21.60;57.70;;;21.86;37.34;99739.13;5277317;23;20076;-56
2022/04/23 09:57:46;;;;;;;8.55;5.03;;;21.50;57.40;;;21.70;37.94;99736.00;5185737;28;20068;-57
2022/04/23 10:00:19;;;;;;;10.20;4.93;;;21.40;57.90;;;21.70;37.78;99736.00;5185761;28;20046;-57
2022/04/23 10:02:59;;;;;;;8.57;5.55;;;21.50;58.10;;;21.23;38.38;99729.28;5174516;28;20046;-57
2022/04/23 10:05:37;;;;;;;7.47;4.95;;;21.20;57.80;;;21.40;38.62;99733.28;5165399;28;20062;-56
2022/04/23 10:08:12;;;;;;;7.93;4.88;;;21.20;58.70;;;21.53;38.76;99733.81;5165552;28;20050;-58
2022/04/23 10:10:46;;;;;;;7.97;5.18;;;21.20;59.00;;;21.29;38.20;99719.44;5164392;28;20391;-58
2022/04/23 10:13:20;;;;;;;8.98;5.20;;;21.10;58.10;;;21.34;38.46;99736.09;5164884;28;20046;-57
2022/04/23 10:15:54;;;;;;;8.05;4.88;;;21.10;58.50;;;21.10;38.31;99740.19;5165452;28;20053;-57
2022/04/23 10:18:26;;;;;;;8.27;4.50;;;20.90;58.10;;;21.33;38.52;99739.66;5165046;28;20068;-57
2022/04/23 10:21:02;;;;;;;11.88;5.32;;;21.00;58.80;;;21.24;38.15;99729.22;5165285;28;20050;-57
2022/04/23 10:23:50;;;;;;;8.07;5.32;;;20.90;58.20;;;21.20;38.21;99730.25;5165047;28;20499;-59
2022/04/23 10:26:38;;;;;;;7.25;4.47;;;20.90;58.20;;;21.30;37.96;99721.16;5165410;28;20054;-57
2022/04/23 10:29:11;;;;;;;10.65;5.72;;;21.00;58.30;;;21.19;37.65;99723.22;5165228;28;20597;-57
2022/04/23 10:31:44;;;;;;;8.60;5.20;;;21.00;57.80;;;21.01;38.11;99734.25;5164596;28;20384;-57
2022/04/23 10:34:34;;;;;;;9.73;5.32;;;20.90;57.90;;;21.24;37.77;99731.03;5165240;28;20072;-57
2022/04/23 10:37:21;;;;;;;6.65;4.13;;;20.80;57.80;;;21.32;37.93;99729.97;5164874;28;20050;-58
2022/04/23 10:40:23;;;;;;;9.90;4.72;;;20.90;58.20;;;21.18;37.76;99740.00;5165125;28;20050;-58
2022/04/23 10:43:12;;;;;;;7.35;4.97;;;20.90;57.70;;;21.27;37.57;99728.31;5082981;29;20570;-59
2022/04/23 10:45:44;;;;;;;7.97;5.20;;;20.90;57.70;;;21.12;37.63;99730.41;5158449;28;20496;-59
2022/04/23 10:48:32;;;;;;;10.60;5.20;;;20.90;57.50;;;21.21;37.71;99726.69;5164587;28;20047;-57
2022/04/23 10:51:08;;;;;;;8.63;4.70;;;20.90;57.70;;;21.35;37.63;99724.56;5164732;28;20514;-58
2022/04/23 10:54:06;;;;;;;7.15;4.53;;;20.90;58.00;;;21.18;37.83;99715.28;5156482;28;20046;-58
2022/04/23 10:56:38;;;;;;;8.48;4.55;;;20.90;57.90;;;21.14;37.92;99747.16;5145794;28;20389;-58
2022/04/23 10:59:38;;;;;;;11.38;5.00;;;20.80;58.00;;;21.27;37.22;99737.13;5164774;28;20053;-58
2022/04/23 11:02:15;;;;;;;8.30;4.80;;;20.90;57.30;;;21.27;37.56;99720.34;5164393;28;20370;-56